Terminal Aerodrome Forecast
Issued by NWS

Home | Current Version | Previous Version | Text Only | Print | Product List | Glossary On
Versions: 1 2 3 4 5 6 7 8 9 10 11 12 13 14 15 16 17 18 19 20
000
FTUS41 KGYX 241731
TAFMHT
TAF
KMHT 241731Z 2418/2518 33003KT 5SM HZ BKN110 BKN200
     FM250000 17005KT 5SM HZ BKN100 WS015/23030KT
     FM250500 19004KT 1/4SM FG VV002 WS015/22030KT
     FM251500 16004KT 1 1/2SM BR OVC007 WS015/22030KT=

USA.gov is the U.S. government's official web portal to all federal, state and local government web resources and services.